createdAt,value
2023-04-29T00:00:48.047Z,81.60
2023-04-29T00:03:15.906Z,81.60
2023-04-29T00:05:43.834Z,81.50
2023-04-29T00:08:11.990Z,81.80
2023-04-29T00:10:39.980Z,81.90
2023-04-29T00:13:08.571Z,81.30
2023-04-29T00:15:37.704Z,81.10
2023-04-29T00:18:06.181Z,82.90
2023-04-29T00:20:33.826Z,82.60
2023-04-29T00:23:01.538Z,82.00
2023-04-29T00:25:29.198Z,81.00
2023-04-29T00:27:59.723Z,81.30
2023-04-29T00:30:27.793Z,81.60
2023-04-29T00:33:18.786Z,80.60
2023-04-29T00:35:48.749Z,79.80
2023-04-29T00:38:17.582Z,78.40
2023-04-29T00:40:45.639Z,79.10
2023-04-29T00:43:15.008Z,79.40
2023-04-29T00:46:00.688Z,78.80
2023-04-29T00:48:28.305Z,79.40
2023-04-29T00:50:56.583Z,79.00
2023-04-29T00:53:24.433Z,80.10
2023-04-29T00:55:52.646Z,80.00
2023-04-29T00:58:21.236Z,79.60
2023-04-29T01:00:49.843Z,80.00
2023-04-29T01:03:17.912Z,79.20
2023-04-29T01:05:50.648Z,78.60
2023-04-29T01:08:21.417Z,78.00
2023-04-29T01:13:42.230Z,78.00
2023-04-29T01:16:13.679Z,78.40
2023-04-29T01:18:46.687Z,78.10
2023-04-29T01:21:14.344Z,77.80
2023-04-29T01:23:43.516Z,78.10
2023-04-29T01:26:14.427Z,78.20
2023-04-29T01:28:50.615Z,77.50
2023-04-29T01:31:37.219Z,77.60
2023-04-29T01:34:07.566Z,77.20
2023-04-29T01:36:44.688Z,76.20
2023-04-29T01:39:21.893Z,76.60
2023-04-29T01:41:57.713Z,76.90
2023-04-29T01:44:28.074Z,76.70
2023-04-29T01:46:56.777Z,76.90
2023-04-29T01:49:29.009Z,76.70
2023-04-29T01:51:58.004Z,76.30
2023-04-29T01:54:26.802Z,76.40
2023-04-29T01:56:56.241Z,76.30
2023-04-29T01:59:23.954Z,76.10
2023-04-29T02:02:00.705Z,76.00
2023-04-29T02:04:29.055Z,76.10
2023-04-29T02:06:56.730Z,75.80
2023-04-29T02:09:24.444Z,75.50
2023-04-29T02:11:52.035Z,75.10
2023-04-29T02:16:49.154Z,74.90
2023-04-29T02:22:30.528Z,74.70
2023-04-29T02:24:58.709Z,75.10
2023-04-29T02:27:27.235Z,74.40
2023-04-29T02:29:54.929Z,74.20
2023-04-29T02:32:23.127Z,74.10
2023-04-29T02:34:50.897Z,73.60
2023-04-29T02:40:50.974Z,73.40
2023-04-29T02:43:18.637Z,73.40
2023-04-29T02:45:46.347Z,73.20
2023-04-29T02:50:59.512Z,73.20
2023-04-29T02:56:02.974Z,73.80
2023-04-29T02:58:34.469Z,72.90
2023-04-29T03:01:02.814Z,72.50
2023-04-29T03:03:31.053Z,72.40
2023-04-29T03:06:02.042Z,72.40
2023-04-29T03:08:29.982Z,72.30
2023-04-29T03:10:58.340Z,71.90
2023-04-29T03:13:26.270Z,71.60
2023-04-29T03:15:54.452Z,71.20
2023-04-29T03:18:22.416Z,70.60
2023-04-29T03:20:50.587Z,70.50
2023-04-29T03:23:25.788Z,70.60
2023-04-29T03:28:38.278Z,70.60
2023-04-29T03:31:06.403Z,69.80
2023-04-29T03:33:35.695Z,70.50
2023-04-29T03:36:08.624Z,70.70
2023-04-29T03:38:36.546Z,70.50
2023-04-29T03:41:04.333Z,70.10
2023-04-29T03:43:32.089Z,69.70
2023-04-29T03:46:01.116Z,69.80
2023-04-29T03:48:32.210Z,68.10
2023-04-29T03:51:02.925Z,69.30
2023-04-29T03:53:43.459Z,68.30
2023-04-29T03:56:12.610Z,68.90
2023-04-29T03:58:43.513Z,65.30
2023-04-29T04:01:14.356Z,67.60
2023-04-29T04:03:44.389Z,66.80
2023-04-29T04:06:18.463Z,68.10
2023-04-29T04:08:46.486Z,68.20
2023-04-29T04:11:20.076Z,67.20
2023-04-29T04:16:48.980Z,67.30
2023-04-29T04:19:20.317Z,67.00
2023-04-29T04:21:47.964Z,66.00
2023-04-29T04:24:19.213Z,63.00
2023-04-29T04:26:47.770Z,64.70
2023-04-29T04:29:20.138Z,66.60
2023-04-29T04:31:50.078Z,65.80
2023-04-29T04:34:18.310Z,63.30
2023-04-29T04:36:47.767Z,59.60
2023-04-29T04:39:21.216Z,62.40
2023-04-29T04:41:49.242Z,63.70
2023-04-29T04:44:17.155Z,64.00
2023-04-29T04:47:24.021Z,63.60
2023-04-29T04:49:55.446Z,63.40
2023-04-29T04:52:32.946Z,59.30
2023-04-29T04:55:03.776Z,60.70
2023-04-29T04:57:31.396Z,63.30
2023-04-29T04:59:59.187Z,64.40
2023-04-29T05:02:27.818Z,64.70
2023-04-29T05:04:56.473Z,61.70
2023-04-29T05:07:25.628Z,62.50
2023-04-29T05:09:53.774Z,62.10
2023-04-29T05:12:21.940Z,64.40
2023-04-29T05:14:54.208Z,63.80
2023-04-29T05:17:22.334Z,60.30
2023-04-29T05:19:53.229Z,62.00
2023-04-29T05:22:28.554Z,62.80
2023-04-29T05:25:09.676Z,62.30
2023-04-29T05:27:46.770Z,62.00
2023-04-29T05:30:16.480Z,60.30
2023-04-29T05:32:45.714Z,60.70
2023-04-29T05:35:16.800Z,60.50
2023-04-29T05:37:44.637Z,61.10
2023-04-29T05:40:12.372Z,60.50
2023-04-29T05:42:49.018Z,59.80
2023-04-29T05:45:17.118Z,57.90
2023-04-29T05:47:47.991Z,59.20
2023-04-29T05:50:15.947Z,60.60
2023-04-29T05:52:44.013Z,60.30
2023-04-29T05:55:11.692Z,62.50
2023-04-29T05:57:51.054Z,60.70
2023-04-29T06:00:22.855Z,59.30
2023-04-29T06:02:58.008Z,59.60
2023-04-29T06:05:29.568Z,61.70
2023-04-29T06:08:10.481Z,59.00
2023-04-29T06:10:38.334Z,57.40
2023-04-29T06:13:08.256Z,58.30
2023-04-29T06:15:36.065Z,59.10
2023-04-29T06:18:04.021Z,60.00
2023-04-29T06:20:31.798Z,60.50
2023-04-29T06:22:59.468Z,59.40
2023-04-29T06:31:44.498Z,59.30
2023-04-29T06:34:15.175Z,60.40
2023-04-29T06:36:42.851Z,59.70
2023-04-29T06:39:10.860Z,61.40
2023-04-29T06:41:41.074Z,60.20
2023-04-29T06:44:16.959Z,58.50
2023-04-29T06:46:44.646Z,58.20
2023-04-29T06:49:12.624Z,57.40
2023-04-29T06:51:41.614Z,58.00
2023-04-29T06:54:21.751Z,55.70
2023-04-29T06:56:49.507Z,59.60
2023-04-29T06:59:17.473Z,58.80
2023-04-29T07:02:25.392Z,56.30
2023-04-29T07:04:53.193Z,57.60
2023-04-29T07:07:36.309Z,57.60
2023-04-29T07:10:04.356Z,55.00
2023-04-29T07:12:32.065Z,55.70
2023-04-29T07:15:02.610Z,55.80
2023-04-29T07:17:31.794Z,57.80
2023-04-29T07:20:07.310Z,54.80
2023-04-29T07:22:45.520Z,54.10
2023-04-29T07:25:13.763Z,54.10
2023-04-29T07:27:59.433Z,59.70
2023-04-29T07:30:31.264Z,58.40
2023-04-29T07:33:05.487Z,57.40
2023-04-29T07:44:08.774Z,57.60
2023-04-29T07:46:44.606Z,56.70
2023-04-29T07:52:08.616Z,56.00
2023-04-29T07:57:26.863Z,57.00
2023-04-29T07:59:55.112Z,57.20
2023-04-29T08:02:24.454Z,58.80
2023-04-29T08:05:00.966Z,58.20
2023-04-29T08:07:34.304Z,57.20
2023-04-29T08:10:02.085Z,57.40
2023-04-29T08:12:29.840Z,56.50
2023-04-29T08:14:57.442Z,57.20
2023-04-29T08:17:28.273Z,58.40
2023-04-29T08:19:57.192Z,58.20
2023-04-29T08:22:25.163Z,58.20
2023-04-29T08:24:53.357Z,56.70
2023-04-29T08:27:22.159Z,57.30
2023-04-29T08:29:49.754Z,56.90
2023-04-29T08:32:17.511Z,56.30
2023-04-29T08:34:45.595Z,57.30
2023-04-29T08:37:13.382Z,58.90
2023-04-29T08:39:41.104Z,58.80
2023-04-29T08:42:09.332Z,59.00
2023-04-29T08:44:37.454Z,59.00
2023-04-29T08:47:06.747Z,57.30
2023-04-29T08:49:34.437Z,58.20
2023-04-29T08:52:03.370Z,57.90
2023-04-29T08:54:33.187Z,58.40
2023-04-29T08:57:03.183Z,58.10
2023-04-29T08:59:36.796Z,58.30
2023-04-29T09:02:06.935Z,59.00
2023-04-29T09:04:34.525Z,59.00
2023-04-29T09:07:04.922Z,58.70
2023-04-29T09:09:33.736Z,58.70
2023-04-29T09:12:02.303Z,59.00
2023-04-29T09:14:33.805Z,59.30
2023-04-29T09:17:01.542Z,60.00
2023-04-29T09:19:33.642Z,59.40
2023-04-29T09:22:02.303Z,59.00
2023-04-29T09:24:31.157Z,59.70
2023-04-29T09:26:59.402Z,59.90
2023-04-29T09:29:28.678Z,59.10
2023-04-29T09:32:01.074Z,59.50
2023-04-29T09:34:35.515Z,59.70
2023-04-29T09:37:03.400Z,59.90
2023-04-29T09:39:41.740Z,60.20
2023-04-29T09:42:11.997Z,60.30
2023-04-29T09:44:42.355Z,60.50
2023-04-29T09:47:10.986Z,61.20
2023-04-29T09:49:40.192Z,60.70
2023-04-29T09:52:14.014Z,60.70
2023-04-29T09:54:44.686Z,60.50
2023-04-29T09:57:13.320Z,60.60
2023-04-29T09:59:45.684Z,60.70
2023-04-29T10:02:21.222Z,61.00
2023-04-29T10:04:54.409Z,59.80
2023-04-29T10:07:23.660Z,59.70
2023-04-29T10:09:53.891Z,60.90
2023-04-29T10:12:21.573Z,60.70
2023-04-29T10:14:56.002Z,60.70
2023-04-29T10:20:30.743Z,60.60
2023-04-29T10:23:00.462Z,60.10
2023-04-29T10:25:30.911Z,60.60
2023-04-29T10:28:00.930Z,60.30
2023-04-29T10:30:28.726Z,60.40
2023-04-29T10:32:58.570Z,60.80
2023-04-29T10:35:28.479Z,61.00
2023-04-29T10:40:43.138Z,61.10
2023-04-29T10:43:10.793Z,61.40
2023-04-29T10:45:38.795Z,61.80
2023-04-29T10:48:10.652Z,61.80
2023-04-29T10:50:59.939Z,61.70
2023-04-29T10:53:28.062Z,61.80
2023-04-29T10:55:58.058Z,61.90
2023-04-29T10:58:45.899Z,62.00
2023-04-29T11:01:14.962Z,62.10
2023-04-29T11:03:49.200Z,62.00
2023-04-29T11:06:17.135Z,62.00
2023-04-29T11:08:46.243Z,62.90
2023-04-29T11:11:16.858Z,62.40
2023-04-29T11:13:50.010Z,62.70
2023-04-29T11:16:28.550Z,62.70
2023-04-29T11:19:22.423Z,63.20
2023-04-29T11:22:04.054Z,63.00
2023-04-29T11:24:31.903Z,63.10
2023-04-29T11:27:04.606Z,63.20
2023-04-29T11:29:35.350Z,63.30
2023-04-29T11:32:03.480Z,63.20
2023-04-29T11:34:31.133Z,63.30
2023-04-29T11:36:58.784Z,63.40
2023-04-29T11:39:27.374Z,63.20
2023-04-29T11:42:05.223Z,63.30
2023-04-29T11:44:34.369Z,63.40
2023-04-29T11:47:02.652Z,63.40
2023-04-29T11:49:33.724Z,63.20
2023-04-29T11:52:01.657Z,63.50
2023-04-29T11:54:30.200Z,63.90
2023-04-29T11:56:59.066Z,63.20
2023-04-29T11:59:27.129Z,62.70
2023-04-29T12:01:54.801Z,63.50
2023-04-29T12:04:23.473Z,63.40
2023-04-29T12:06:54.352Z,62.80
2023-04-29T12:09:21.979Z,63.10
2023-04-29T12:11:53.242Z,63.40
2023-04-29T12:14:22.091Z,63.70
2023-04-29T12:16:49.942Z,63.60
2023-04-29T12:19:17.566Z,63.90
2023-04-29T12:21:52.574Z,63.70
2023-04-29T12:24:21.664Z,63.80
2023-04-29T12:26:49.898Z,64.10
2023-04-29T12:29:17.647Z,64.50
2023-04-29T12:31:48.117Z,64.30
2023-04-29T12:34:15.655Z,64.50
2023-04-29T12:36:43.752Z,64.50
2023-04-29T12:39:11.815Z,64.50
2023-04-29T12:41:40.630Z,64.60
2023-04-29T12:44:08.749Z,64.60
2023-04-29T12:46:38.897Z,64.80
2023-04-29T12:49:07.181Z,65.10
2023-04-29T12:51:36.799Z,65.00
2023-04-29T12:54:05.193Z,65.10
2023-04-29T12:56:33.195Z,65.20
2023-04-29T12:59:10.281Z,65.30
2023-04-29T13:01:38.066Z,65.40
2023-04-29T13:04:09.220Z,65.50
2023-04-29T13:06:41.270Z,65.50
2023-04-29T13:09:17.887Z,65.40
2023-04-29T13:11:47.072Z,65.40
2023-04-29T13:14:14.701Z,65.20
2023-04-29T13:16:42.344Z,65.20
2023-04-29T13:19:29.583Z,65.50
2023-04-29T13:21:57.663Z,65.20
2023-04-29T13:24:25.251Z,65.20
2023-04-29T13:26:54.538Z,65.00
2023-04-29T13:29:22.272Z,65.20
2023-04-29T13:31:51.000Z,65.30
2023-04-29T13:34:19.401Z,65.40
2023-04-29T13:36:48.052Z,65.40
2023-04-29T13:39:15.898Z,65.50
2023-04-29T13:41:45.976Z,65.70
2023-04-29T13:46:46.756Z,65.30
2023-04-29T13:52:32.313Z,65.50
2023-04-29T13:59:46.780Z,65.60
2023-04-29T14:04:49.441Z,65.40
2023-04-29T14:07:17.363Z,65.40
2023-04-29T14:09:44.988Z,65.40
2023-04-29T14:12:13.521Z,65.70
2023-04-29T14:14:42.206Z,65.90
2023-04-29T14:17:09.822Z,65.90
2023-04-29T14:19:37.372Z,66.00
2023-04-29T14:22:05.042Z,66.40
2023-04-29T14:24:32.886Z,66.20
2023-04-29T14:27:03.138Z,66.30
2023-04-29T14:29:31.685Z,66.80
2023-04-29T14:32:00.035Z,66.50
2023-04-29T14:34:27.570Z,66.70
2023-04-29T14:36:55.134Z,66.70
2023-04-29T14:39:23.034Z,66.60
2023-04-29T14:41:50.610Z,66.70
2023-04-29T14:44:19.354Z,66.70
2023-04-29T14:46:47.146Z,66.70
2023-04-29T14:49:15.672Z,66.70
2023-04-29T14:51:43.306Z,66.80
2023-04-29T14:54:11.762Z,66.90
2023-04-29T14:56:40.195Z,66.90
2023-04-29T14:59:09.760Z,66.90
2023-04-29T15:01:37.441Z,66.90
2023-04-29T15:04:06.513Z,67.00
2023-04-29T15:06:34.686Z,67.00
2023-04-29T15:09:02.714Z,66.90
2023-04-29T15:11:30.574Z,67.00
2023-04-29T15:13:58.975Z,67.10
2023-04-29T15:16:27.252Z,67.00
2023-04-29T15:18:54.902Z,67.10
2023-04-29T15:21:23.479Z,67.40
2023-04-29T15:23:51.123Z,67.30
2023-04-29T15:26:19.813Z,67.50
2023-04-29T15:28:47.470Z,67.70
2023-04-29T15:31:15.944Z,67.70
2023-04-29T15:33:43.989Z,67.80
2023-04-29T15:36:11.595Z,68.20
2023-04-29T15:38:39.187Z,68.10
2023-04-29T15:41:07.113Z,68.60
2023-04-29T15:43:35.785Z,68.40
2023-04-29T15:46:03.430Z,68.30
2023-04-29T15:48:31.129Z,68.40
2023-04-29T15:50:58.705Z,68.70
2023-04-29T15:53:26.356Z,68.10
2023-04-29T15:55:54.870Z,68.40
2023-04-29T15:58:23.257Z,68.50
2023-04-29T16:00:52.492Z,68.10
2023-04-29T16:03:20.150Z,68.40
2023-04-29T16:05:47.898Z,69.00
2023-04-29T16:08:15.660Z,68.50
2023-04-29T16:10:43.231Z,69.40
2023-04-29T16:13:12.489Z,71.20
2023-04-29T16:15:40.298Z,70.90
2023-04-29T16:18:08.375Z,71.10
2023-04-29T16:20:36.360Z,70.40
2023-04-29T16:23:04.731Z,71.20
2023-04-29T16:25:33.163Z,71.10
2023-04-29T16:28:01.718Z,71.60
2023-04-29T16:30:29.293Z,72.50
2023-04-29T16:32:57.751Z,72.70
2023-04-29T16:35:26.858Z,72.70
2023-04-29T16:37:54.451Z,72.00
2023-04-29T16:40:24.593Z,73.60
2023-04-29T16:42:53.610Z,73.50
2023-04-29T16:45:23.736Z,75.20
2023-04-29T16:47:51.845Z,74.80
2023-04-29T16:50:19.483Z,76.40
2023-04-29T16:52:47.063Z,76.20
2023-04-29T16:55:15.073Z,77.70
2023-04-29T16:57:43.691Z,76.90
2023-04-29T17:00:12.034Z,77.60
2023-04-29T17:02:43.352Z,79.40
2023-04-29T17:05:11.248Z,78.10
2023-04-29T17:07:38.900Z,79.30
2023-04-29T17:10:07.057Z,80.30
2023-04-29T17:12:34.874Z,79.30
2023-04-29T17:15:02.480Z,78.70
2023-04-29T17:17:30.101Z,77.30
2023-04-29T17:19:58.483Z,77.60
2023-04-29T17:22:27.118Z,81.00
2023-04-29T17:24:54.761Z,80.50
2023-04-29T17:27:23.254Z,78.40
2023-04-29T17:29:50.801Z,78.80
2023-04-29T17:32:25.650Z,82.10
2023-04-29T17:34:54.821Z,83.10
2023-04-29T17:37:30.574Z,83.70
2023-04-29T17:39:58.201Z,84.70
2023-04-29T17:42:25.915Z,83.10
2023-04-29T17:44:53.562Z,83.90
2023-04-29T17:47:21.932Z,84.80
2023-04-29T17:49:51.887Z,84.80
2023-04-29T17:52:21.613Z,84.00
2023-04-29T17:54:49.987Z,85.30
2023-04-29T17:57:18.237Z,86.20
2023-04-29T17:59:47.946Z,86.60
2023-04-29T18:02:16.424Z,85.70
2023-04-29T18:04:44.025Z,85.60
2023-04-29T18:07:11.648Z,87.80
2023-04-29T18:09:39.216Z,86.80
2023-04-29T18:12:07.751Z,85.40
2023-04-29T18:14:36.130Z,84.40
2023-04-29T18:17:03.764Z,86.50
2023-04-29T18:19:31.412Z,87.90
2023-04-29T18:22:01.489Z,87.90
2023-04-29T18:24:30.516Z,88.00
2023-04-29T18:26:58.227Z,87.60
2023-04-29T18:29:26.754Z,87.60
2023-04-29T18:31:56.216Z,88.20
2023-04-29T18:34:24.894Z,88.40
2023-04-29T18:36:53.229Z,89.00
2023-04-29T18:39:22.172Z,90.20
2023-04-29T18:41:49.941Z,90.60
2023-04-29T18:44:17.550Z,91.30
2023-04-29T18:46:45.376Z,91.20
2023-04-29T18:49:16.365Z,90.90
2023-04-29T18:51:47.143Z,91.40
2023-04-29T18:54:16.343Z,90.10
2023-04-29T18:56:58.295Z,91.00
2023-04-29T19:02:11.403Z,91.20
2023-04-29T19:04:41.915Z,90.00
2023-04-29T19:07:09.667Z,90.90
2023-04-29T19:09:37.418Z,91.80
2023-04-29T19:12:05.481Z,90.90
2023-04-29T19:14:34.424Z,91.70
2023-04-29T19:17:02.038Z,92.60
2023-04-29T19:19:30.583Z,92.20
2023-04-29T19:21:58.412Z,91.20
2023-04-29T19:24:29.315Z,91.60
2023-04-29T19:26:57.687Z,91.60
2023-04-29T19:29:25.500Z,91.60
2023-04-29T19:31:53.225Z,92.00
2023-04-29T19:34:21.042Z,92.50
2023-04-29T19:36:49.649Z,92.00
2023-04-29T19:39:24.725Z,92.90
2023-04-29T19:41:52.834Z,92.40
2023-04-29T19:44:20.595Z,92.90
2023-04-29T19:46:51.949Z,93.30
2023-04-29T19:49:21.161Z,93.20
2023-04-29T19:51:49.738Z,93.00
2023-04-29T19:54:17.355Z,93.40
2023-04-29T19:56:46.031Z,92.30
2023-04-29T19:59:13.646Z,90.90
2023-04-29T20:01:42.308Z,91.60
2023-04-29T20:04:12.544Z,91.10
2023-04-29T20:06:41.026Z,91.10
2023-04-29T20:09:09.642Z,91.50
2023-04-29T20:11:37.344Z,92.30
2023-04-29T20:14:11.384Z,92.80
2023-04-29T20:16:42.441Z,92.50
2023-04-29T20:19:10.151Z,92.90
2023-04-29T20:21:39.913Z,92.20
2023-04-29T20:24:08.324Z,92.40
2023-04-29T20:26:35.970Z,91.10
2023-04-29T20:29:04.893Z,92.00
2023-04-29T20:31:32.760Z,91.70
2023-04-29T20:34:01.587Z,91.30
2023-04-29T20:36:29.295Z,90.10
2023-04-29T20:38:57.485Z,90.20
2023-04-29T20:41:29.323Z,88.50
2023-04-29T20:43:57.469Z,88.50
2023-04-29T20:46:26.168Z,90.00
2023-04-29T20:48:53.872Z,90.70
2023-04-29T20:51:21.783Z,89.80
2023-04-29T20:53:50.899Z,90.40
2023-04-29T20:56:20.558Z,91.10
2023-04-29T20:58:51.607Z,90.20
2023-04-29T21:01:20.782Z,90.50
2023-04-29T21:03:48.483Z,90.40
2023-04-29T21:06:17.774Z,90.10
2023-04-29T21:08:46.243Z,90.80
2023-04-29T21:11:14.237Z,91.40
2023-04-29T21:13:42.236Z,90.90
2023-04-29T21:16:12.525Z,91.50
2023-04-29T21:18:40.284Z,91.50
2023-04-29T21:21:08.809Z,90.60
2023-04-29T21:23:36.845Z,89.70
2023-04-29T21:26:04.621Z,89.60
2023-04-29T21:28:33.070Z,89.20
2023-04-29T21:31:01.493Z,88.90
2023-04-29T21:33:31.211Z,90.90
2023-04-29T21:36:01.253Z,90.70
2023-04-29T21:38:42.333Z,91.70
2023-04-29T21:44:04.266Z,91.20
2023-04-29T21:46:48.748Z,92.00
2023-04-29T21:49:29.198Z,92.50
2023-04-29T21:51:57.673Z,91.60
2023-04-29T21:54:31.283Z,90.80
2023-04-29T21:56:58.903Z,90.70
2023-04-29T21:59:27.558Z,91.20
2023-04-29T22:02:01.423Z,93.40
2023-04-29T22:04:29.112Z,94.40
2023-04-29T22:06:57.436Z,92.60
2023-04-29T22:09:26.593Z,91.80
2023-04-29T22:12:00.459Z,92.50
2023-04-29T22:14:29.114Z,94.20
2023-04-29T22:16:56.878Z,95.00
2023-04-29T22:19:24.559Z,95.60
2023-04-29T22:21:52.216Z,95.60
2023-04-29T22:24:19.796Z,95.80
2023-04-29T22:26:48.113Z,95.00
2023-04-29T22:29:15.752Z,94.40
2023-04-29T22:31:44.397Z,95.40
2023-04-29T22:34:11.966Z,95.50
2023-04-29T22:36:40.347Z,96.00
2023-04-29T22:39:08.805Z,96.00
2023-04-29T22:41:36.428Z,95.60
2023-04-29T22:44:05.026Z,95.70
2023-04-29T22:46:33.708Z,95.50
2023-04-29T22:49:02.782Z,95.50
2023-04-29T22:51:34.668Z,95.90
2023-04-29T22:54:10.112Z,95.60
2023-04-29T22:56:37.909Z,95.60
2023-04-29T22:59:05.609Z,95.50
2023-04-29T23:01:34.407Z,95.20
2023-04-29T23:09:40.658Z,95.60
2023-04-29T23:12:08.362Z,96.30
2023-04-29T23:14:37.395Z,95.30
2023-04-29T23:17:05.803Z,95.80
2023-04-29T23:19:33.497Z,94.80
2023-04-29T23:22:01.669Z,95.10
2023-04-29T23:24:34.712Z,95.70
2023-04-29T23:27:03.772Z,96.10
2023-04-29T23:29:34.538Z,95.90
2023-04-29T23:32:02.282Z,96.30
2023-04-29T23:34:29.905Z,96.40
2023-04-29T23:36:58.428Z,96.10
2023-04-29T23:39:26.845Z,96.10
2023-04-29T23:41:58.315Z,96.10
2023-04-29T23:44:26.295Z,93.90
2023-04-29T23:46:55.132Z,94.70
2023-04-29T23:49:22.698Z,95.70
2023-04-29T23:51:50.576Z,95.80
2023-04-29T23:54:19.067Z,95.70
2023-04-29T23:56:52.295Z,96.30
2023-04-29T23:59:20.521Z,96.50
